createdAt,value
2019-01-19T00:00:05.985Z,74.87
2019-01-19T00:02:56.617Z,74.81
2019-01-19T00:05:47.189Z,75.11
2019-01-19T00:08:39.648Z,75.33
2019-01-19T00:11:32.103Z,75.52
2019-01-19T00:14:24.586Z,75.51
2019-01-19T00:17:15.130Z,75.55
2019-01-19T00:20:05.684Z,75.61
2019-01-19T00:22:56.229Z,75.94
2019-01-19T00:25:46.799Z,76.43
2019-01-19T00:28:37.359Z,76.45
2019-01-19T00:31:27.896Z,76.70
2019-01-19T00:34:18.452Z,76.88
2019-01-19T00:37:11.269Z,77.02
2019-01-19T00:40:01.802Z,76.95
2019-01-19T00:42:54.510Z,76.98
2019-01-19T00:45:45.084Z,77.10
2019-01-19T00:48:35.634Z,77.10
2019-01-19T00:51:26.189Z,77.08
2019-01-19T00:54:17.847Z,76.98
2019-01-19T00:57:10.366Z,76.63
2019-01-19T01:00:02.831Z,76.61
2019-01-19T01:02:53.401Z,76.61
2019-01-19T01:05:45.856Z,76.71
2019-01-19T01:08:38.340Z,76.62
2019-01-19T01:11:28.920Z,76.82
2019-01-19T01:14:21.400Z,77.28
2019-01-19T01:17:13.861Z,77.68
2019-01-19T01:20:04.408Z,77.46
2019-01-19T01:22:54.977Z,77.50
2019-01-19T01:25:45.537Z,77.62
2019-01-19T01:28:38.005Z,77.58
2019-01-19T01:31:30.462Z,77.57
2019-01-19T01:34:22.943Z,77.47
2019-01-19T01:37:15.396Z,77.52
2019-01-19T01:40:07.860Z,77.67
2019-01-19T01:42:58.426Z,78.05
2019-01-19T01:45:49.013Z,78.21
2019-01-19T01:48:41.496Z,78.41
2019-01-19T01:51:32.038Z,78.47
2019-01-19T01:54:22.595Z,78.21
2019-01-19T01:56:33.421Z,78.33
2019-01-19T01:59:23.977Z,78.28
2019-01-19T02:02:16.454Z,78.29
2019-01-19T02:05:07.002Z,78.47
2019-01-19T02:07:59.447Z,78.81
2019-01-19T02:10:50.083Z,78.86
2019-01-19T02:13:40.640Z,78.60
2019-01-19T02:16:33.117Z,78.77
2019-01-19T02:19:25.569Z,78.33
2019-01-19T02:22:16.309Z,78.42
2019-01-19T02:25:06.879Z,78.27
2019-01-19T02:27:57.461Z,78.38
2019-01-19T02:30:49.927Z,78.43
2019-01-19T02:33:40.483Z,78.57
2019-01-19T02:36:31.097Z,78.77
2019-01-19T02:39:21.634Z,78.62
2019-01-19T02:42:12.211Z,78.37
2019-01-19T02:45:04.661Z,78.36
2019-01-19T02:47:55.234Z,78.53
2019-01-19T02:50:45.797Z,78.28
2019-01-19T02:53:36.359Z,77.89
2019-01-19T02:56:28.793Z,78.09
2019-01-19T02:59:21.297Z,78.79
2019-01-19T03:07:43.200Z,78.96
2019-01-19T03:10:35.654Z,78.87
2019-01-19T03:13:28.128Z,78.51
2019-01-19T03:16:18.665Z,78.34
2019-01-19T03:19:09.230Z,78.39
2019-01-19T03:21:59.766Z,78.27
2019-01-19T03:24:52.236Z,78.54
2019-01-19T03:27:44.716Z,78.47
2019-01-19T03:30:37.163Z,78.76
2019-01-19T03:33:27.722Z,79.00
2019-01-19T03:36:20.170Z,78.92
2019-01-19T03:39:12.629Z,78.78
2019-01-19T03:42:03.860Z,79.15
2019-01-19T03:44:56.319Z,79.53
2019-01-19T03:47:48.784Z,79.54
2019-01-19T03:50:39.339Z,79.73
2019-01-19T03:53:30.103Z,79.60
2019-01-19T03:56:20.632Z,79.29
2019-01-19T03:59:11.216Z,78.90
2019-01-19T04:02:01.775Z,78.77
2019-01-19T04:04:52.395Z,78.50
2019-01-19T04:07:42.865Z,78.42
2019-01-19T04:10:33.452Z,79.03
2019-01-19T04:13:25.888Z,79.16
2019-01-19T04:16:16.445Z,79.16
2019-01-19T04:19:06.994Z,78.98
2019-01-19T04:21:59.461Z,79.19
2019-01-19T04:24:51.903Z,79.25
2019-01-19T04:27:02.717Z,79.15
2019-01-19T04:29:13.508Z,78.90
2019-01-19T04:31:24.322Z,78.95
2019-01-19T04:33:35.134Z,78.88
2019-01-19T04:35:45.933Z,78.92
2019-01-19T04:37:56.754Z,79.00
2019-01-19T04:40:49.213Z,79.08
2019-01-19T04:43:00.001Z,79.23
2019-01-19T04:45:10.996Z,79.26
2019-01-19T04:47:21.810Z,79.12
2019-01-19T04:49:32.601Z,78.97
2019-01-19T04:51:43.437Z,79.06
2019-01-19T04:53:54.231Z,79.17
2019-01-19T04:56:05.138Z,79.28
2019-01-19T04:58:15.987Z,79.54
2019-01-19T05:00:26.788Z,79.81
2019-01-19T05:02:37.608Z,79.74
2019-01-19T05:04:48.515Z,79.80
2019-01-19T05:06:59.324Z,80.21
2019-01-19T05:09:10.230Z,80.53
2019-01-19T05:11:21.016Z,80.43
2019-01-19T05:13:31.837Z,80.40
2019-01-19T05:15:42.637Z,80.53
2019-01-19T05:20:32.138Z,80.53
2019-01-19T05:22:42.941Z,80.53
2019-01-19T05:24:53.744Z,80.24
2019-01-19T05:27:24.455Z,80.05
2019-01-19T05:29:35.243Z,80.05
2019-01-19T05:31:46.047Z,80.02
2019-01-19T05:34:16.759Z,79.91
2019-01-19T05:36:27.554Z,79.91
2019-01-19T05:38:38.368Z,79.09
2019-01-19T05:40:49.187Z,79.41
2019-01-19T05:42:59.977Z,79.46
2019-01-19T05:45:52.452Z,79.44
2019-01-19T05:48:03.563Z,79.25
2019-01-19T05:50:56.049Z,79.44
2019-01-19T05:53:06.842Z,79.41
2019-01-19T05:55:17.652Z,79.52
2019-01-19T05:57:28.481Z,79.65
2019-01-19T05:59:39.289Z,79.48
2019-01-19T06:01:50.094Z,79.68
2019-01-19T06:04:00.885Z,79.82
2019-01-19T06:08:30.522Z,79.77
2019-01-19T06:10:41.334Z,79.55
2019-01-19T06:12:52.129Z,79.60
2019-01-19T06:15:44.609Z,79.47
2019-01-19T06:17:55.400Z,79.17
2019-01-19T06:20:47.849Z,79.29
2019-01-19T06:22:58.661Z,79.41
2019-01-19T06:25:31.243Z,79.19
2019-01-19T06:27:42.182Z,79.07
2019-01-19T06:29:52.977Z,78.93
2019-01-19T06:32:03.822Z,78.73
2019-01-19T06:34:14.601Z,78.74
2019-01-19T06:36:25.411Z,78.84
2019-01-19T06:38:36.221Z,78.93
2019-01-19T06:40:47.038Z,78.98
2019-01-19T06:42:58.175Z,79.19
2019-01-19T06:45:50.623Z,79.14
2019-01-19T06:50:20.437Z,79.09
2019-01-19T06:52:31.280Z,78.79
2019-01-19T06:54:42.184Z,78.76
2019-01-19T06:56:53.048Z,78.61
2019-01-19T06:59:03.862Z,78.53
2019-01-19T07:01:14.674Z,78.37
2019-01-19T07:03:25.496Z,78.05
2019-01-19T07:05:36.305Z,78.10
2019-01-19T07:07:47.138Z,77.92
2019-01-19T07:09:57.972Z,77.89
2019-01-19T07:12:08.869Z,77.79
2019-01-19T07:14:19.687Z,78.00
2019-01-19T07:16:30.485Z,77.99
2019-01-19T07:18:41.313Z,78.27
2019-01-19T07:20:52.104Z,78.76
2019-01-19T07:23:02.936Z,78.71
2019-01-19T07:25:13.851Z,78.97
2019-01-19T07:27:24.698Z,85.70
2019-01-19T07:29:35.486Z,83.35
2019-01-19T07:31:46.296Z,79.66
2019-01-19T07:33:57.098Z,79.04
2019-01-19T07:36:08.090Z,77.70
2019-01-19T07:38:18.851Z,77.42
2019-01-19T07:40:29.661Z,77.97
2019-01-19T07:45:54.580Z,78.31
2019-01-19T07:50:24.654Z,78.32
2019-01-19T07:52:35.479Z,78.44
2019-01-19T07:54:46.316Z,78.64
2019-01-19T07:56:57.126Z,78.56
2019-01-19T07:59:08.082Z,78.62
2019-01-19T08:01:18.884Z,78.59
2019-01-19T08:03:29.675Z,78.58
2019-01-19T08:05:40.506Z,78.55
2019-01-19T08:07:51.302Z,78.47
2019-01-19T08:10:43.780Z,78.40
2019-01-19T08:15:47.034Z,78.09
2019-01-19T08:17:57.857Z,78.53
2019-01-19T08:20:50.342Z,79.42
2019-01-19T08:23:01.156Z,80.14
2019-01-19T08:25:53.614Z,80.62
2019-01-19T08:28:04.459Z,80.58
2019-01-19T08:30:35.230Z,79.81
2019-01-19T08:32:46.191Z,78.78
2019-01-19T08:34:56.988Z,77.31
2019-01-19T08:37:07.921Z,75.74
2019-01-19T08:39:19.024Z,75.14
2019-01-19T08:41:29.837Z,74.20
2019-01-19T08:46:13.013Z,73.62
2019-01-19T08:48:24.133Z,73.12
2019-01-19T08:50:34.958Z,72.05
2019-01-19T08:52:45.805Z,71.98
2019-01-19T08:54:56.594Z,71.16
2019-01-19T08:57:07.623Z,69.29
2019-01-19T08:59:18.434Z,67.70
2019-01-19T09:01:29.349Z,66.83
2019-01-19T09:03:40.153Z,66.20
2019-01-19T09:05:50.966Z,64.42
2019-01-19T09:08:01.777Z,63.93
2019-01-19T09:10:32.438Z,63.40
2019-01-19T09:12:43.368Z,62.68
2019-01-19T09:14:54.168Z,62.13
2019-01-19T09:17:05.032Z,62.58
2019-01-19T09:19:15.839Z,63.04
2019-01-19T09:21:26.655Z,63.58
2019-01-19T09:25:56.283Z,64.72
2019-01-19T09:28:07.112Z,64.87
2019-01-19T09:30:59.576Z,63.84
2019-01-19T09:33:10.514Z,64.15
2019-01-19T09:35:21.302Z,64.32
2019-01-19T09:37:32.150Z,62.96
2019-01-19T09:39:42.939Z,65.27
2019-01-19T09:41:53.739Z,65.25
2019-01-19T09:44:04.649Z,67.22
2019-01-19T09:46:15.595Z,68.56
2019-01-19T09:48:33.517Z,65.43
2019-01-19T09:50:44.312Z,65.08
2019-01-19T09:52:55.148Z,63.89
2019-01-19T09:55:27.692Z,63.87
2019-01-19T09:57:38.610Z,65.64
2019-01-19T09:59:49.474Z,65.89
2019-01-19T10:02:00.296Z,66.27
2019-01-19T10:04:11.115Z,66.23
2019-01-19T10:06:22.027Z,66.73
2019-01-19T10:08:32.923Z,66.55
2019-01-19T10:13:06.187Z,67.23
2019-01-19T10:15:58.641Z,67.38
2019-01-19T10:18:09.554Z,68.71
2019-01-19T10:20:40.248Z,68.69
2019-01-19T10:22:51.197Z,68.43
2019-01-19T10:25:43.842Z,68.58
2019-01-19T10:27:54.661Z,67.97
2019-01-19T10:30:47.140Z,67.64
2019-01-19T10:32:58.032Z,67.72
2019-01-19T10:35:50.498Z,67.66
2019-01-19T10:38:01.318Z,66.85
2019-01-19T10:40:53.772Z,66.99
2019-01-19T10:43:04.571Z,67.03
2019-01-19T10:45:35.281Z,67.85
2019-01-19T10:47:46.077Z,67.87
2019-01-19T10:49:56.883Z,68.50
2019-01-19T10:52:07.719Z,68.45
2019-01-19T10:54:18.540Z,67.90
2019-01-19T10:56:29.523Z,68.85
2019-01-19T10:58:40.353Z,68.32
2019-01-19T11:00:51.178Z,68.98
2019-01-19T11:03:02.100Z,68.42
2019-01-19T11:05:54.567Z,69.33
2019-01-19T11:10:37.870Z,67.39
2019-01-19T11:12:48.791Z,67.57
2019-01-19T11:14:59.595Z,72.38
2019-01-19T11:17:10.436Z,69.16
2019-01-19T11:19:21.256Z,67.05
2019-01-19T11:21:32.069Z,66.10
2019-01-19T11:23:42.915Z,65.96
2019-01-19T11:25:53.829Z,66.02
2019-01-19T11:28:04.654Z,65.99
2019-01-19T11:30:57.096Z,66.06
2019-01-19T11:33:07.924Z,66.27
2019-01-19T11:35:19.199Z,66.42
2019-01-19T11:37:29.976Z,66.56
2019-01-19T11:39:40.813Z,65.74
2019-01-19T11:41:51.594Z,65.31
2019-01-19T11:44:02.535Z,65.26
2019-01-19T11:46:13.354Z,65.31
2019-01-19T11:48:24.169Z,65.08
2019-01-19T11:50:34.976Z,65.61
2019-01-19T11:53:07.696Z,65.69
2019-01-19T11:58:32.611Z,65.31
2019-01-19T12:00:43.450Z,65.90
2019-01-19T12:02:54.297Z,66.18
2019-01-19T12:05:05.208Z,65.70
2019-01-19T12:07:16.009Z,66.14
2019-01-19T12:09:26.839Z,66.26
2019-01-19T12:11:37.746Z,66.57
2019-01-19T12:13:48.621Z,66.58
2019-01-19T12:15:59.423Z,66.35
2019-01-19T12:18:10.979Z,66.79
2019-01-19T12:20:43.042Z,66.87
2019-01-19T12:22:54.153Z,67.56
2019-01-19T12:25:46.611Z,66.26
2019-01-19T12:27:57.538Z,66.25
2019-01-19T12:30:29.233Z,67.40
2019-01-19T12:32:40.136Z,67.81
2019-01-19T12:34:50.970Z,69.37
2019-01-19T12:37:01.884Z,67.12
2019-01-19T12:39:12.702Z,66.55
2019-01-19T12:41:23.542Z,66.64
2019-01-19T12:43:34.329Z,66.96
2019-01-19T12:46:26.813Z,67.40
2019-01-19T12:48:37.603Z,67.45
2019-01-19T12:50:48.466Z,68.15
2019-01-19T12:52:59.290Z,68.44
2019-01-19T12:55:31.910Z,68.78
2019-01-19T12:57:42.739Z,69.08
2019-01-19T12:59:53.575Z,68.64
2019-01-19T13:02:04.512Z,67.55
2019-01-19T13:04:15.346Z,67.76
2019-01-19T13:06:46.330Z,68.25
2019-01-19T13:08:57.253Z,68.43
2019-01-19T13:11:49.767Z,68.13
2019-01-19T13:14:03.420Z,67.46
2019-01-19T13:16:55.098Z,67.35
2019-01-19T13:19:47.543Z,67.61
2019-01-19T13:22:39.991Z,67.53
2019-01-19T13:25:30.564Z,67.00
2019-01-19T13:28:21.189Z,67.08
2019-01-19T13:31:11.711Z,66.95
2019-01-19T13:33:44.330Z,67.21
2019-01-19T13:36:34.924Z,66.81
2019-01-19T13:39:25.539Z,66.07
2019-01-19T13:42:16.105Z,66.23
2019-01-19T13:45:06.670Z,66.09
2019-01-19T13:47:57.233Z,66.39
2019-01-19T13:50:47.776Z,65.90
2019-01-19T13:53:38.364Z,66.09
2019-01-19T13:56:28.940Z,65.75
2019-01-19T13:59:19.530Z,66.32
2019-01-19T14:02:10.089Z,66.13
2019-01-19T14:05:00.669Z,66.00
2019-01-19T14:07:51.210Z,65.46
2019-01-19T14:10:41.762Z,66.29
2019-01-19T14:13:32.317Z,65.53
2019-01-19T14:16:22.908Z,65.71
2019-01-19T14:19:15.390Z,65.70
2019-01-19T14:22:07.833Z,65.44
2019-01-19T14:25:00.326Z,65.95
2019-01-19T14:27:52.756Z,65.53
2019-01-19T14:30:43.342Z,66.45
2019-01-19T14:33:35.776Z,65.91
2019-01-19T14:36:26.464Z,66.72
2019-01-19T14:39:17.023Z,66.42
2019-01-19T14:42:09.493Z,66.47
2019-01-19T14:45:01.961Z,66.68
2019-01-19T14:47:52.514Z,75.35
2019-01-19T14:50:44.984Z,66.63
2019-01-19T14:53:35.590Z,65.37
2019-01-19T14:56:26.143Z,65.61
2019-01-19T14:58:58.733Z,66.25
2019-01-19T15:01:49.295Z,66.02
2019-01-19T15:04:39.949Z,66.75
2019-01-19T15:07:32.418Z,66.83
2019-01-19T15:10:05.014Z,66.18
2019-01-19T15:12:57.473Z,66.07
2019-01-19T15:15:48.036Z,66.64
2019-01-19T15:18:40.520Z,66.48
2019-01-19T15:21:32.972Z,69.30
2019-01-19T15:24:23.573Z,66.14
2019-01-19T15:27:15.989Z,65.49
2019-01-19T15:30:08.466Z,64.87
2019-01-19T15:33:00.987Z,65.31
2019-01-19T15:35:53.445Z,64.88
2019-01-19T15:38:44.066Z,64.85
2019-01-19T15:41:36.515Z,65.31
2019-01-19T15:44:27.208Z,65.34
2019-01-19T15:47:17.730Z,64.93
2019-01-19T15:50:08.315Z,65.08
2019-01-19T15:53:00.779Z,64.85
2019-01-19T15:55:51.346Z,66.08
2019-01-19T15:58:43.823Z,72.41
2019-01-19T16:01:36.314Z,62.73
2019-01-19T16:04:28.799Z,61.88
2019-01-19T16:07:19.460Z,63.11
2019-01-19T16:10:11.942Z,62.51
2019-01-19T16:13:04.385Z,63.02
2019-01-19T16:15:54.976Z,63.09
2019-01-19T16:18:47.417Z,63.58
2019-01-19T16:21:37.980Z,63.45
2019-01-19T16:24:28.526Z,63.95
2019-01-19T16:27:19.083Z,64.25
2019-01-19T16:30:11.560Z,63.43
2019-01-19T16:33:02.271Z,63.85
2019-01-19T16:35:52.853Z,63.74
2019-01-19T16:38:43.404Z,64.22
2019-01-19T16:41:36.288Z,65.34
2019-01-19T16:44:28.780Z,64.69
2019-01-19T16:47:19.355Z,64.56
2019-01-19T16:50:09.916Z,64.28
2019-01-19T16:53:02.384Z,64.88
2019-01-19T16:55:54.869Z,64.71
2019-01-19T16:58:45.466Z,64.31
2019-01-19T17:01:37.918Z,64.98
2019-01-19T17:04:30.373Z,64.88
2019-01-19T17:07:22.833Z,65.28
2019-01-19T17:10:15.326Z,65.28
2019-01-19T17:13:07.839Z,65.40
2019-01-19T17:16:00.297Z,65.56
2019-01-19T17:18:52.775Z,65.50
2019-01-19T17:21:43.317Z,65.47
2019-01-19T17:24:35.977Z,65.78
2019-01-19T17:27:26.540Z,65.96
2019-01-19T17:30:17.143Z,66.25
2019-01-19T17:33:07.705Z,66.46
2019-01-19T17:36:00.177Z,66.62
2019-01-19T17:38:50.757Z,67.17
2019-01-19T17:41:41.312Z,67.18
2019-01-19T17:44:31.903Z,67.29
2019-01-19T17:47:24.368Z,67.29
2019-01-19T17:49:56.978Z,67.59
2019-01-19T17:52:49.456Z,67.87
2019-01-19T17:55:40.178Z,68.16
2019-01-19T17:58:30.759Z,68.20
2019-01-19T18:01:21.579Z,68.31
2019-01-19T18:04:14.172Z,68.24
2019-01-19T18:07:06.633Z,68.55
2019-01-19T18:09:57.224Z,69.48
2019-01-19T18:12:47.789Z,69.48
2019-01-19T18:15:38.371Z,69.02
2019-01-19T18:18:30.880Z,69.47
2019-01-19T18:21:21.468Z,69.47
2019-01-19T18:24:13.951Z,69.10
2019-01-19T18:27:04.559Z,69.16
2019-01-19T18:29:55.135Z,69.30
2019-01-19T18:32:47.625Z,69.37
2019-01-19T18:35:40.129Z,69.73
2019-01-19T18:38:30.716Z,69.96
2019-01-19T18:41:21.281Z,68.81
2019-01-19T18:44:11.871Z,68.81
2019-01-19T18:47:02.484Z,69.52
2019-01-19T18:49:54.984Z,70.02
2019-01-19T18:52:45.604Z,70.08
2019-01-19T18:55:38.053Z,70.08
2019-01-19T18:58:28.659Z,70.44
2019-01-19T19:00:52.455Z,70.73
2019-01-19T19:03:44.985Z,70.73
2019-01-19T19:06:37.429Z,70.40
2019-01-19T19:09:10.047Z,70.69
2019-01-19T19:12:00.612Z,70.79
2019-01-19T19:14:53.131Z,70.84
2019-01-19T19:17:45.605Z,70.90
2019-01-19T19:20:38.103Z,71.03
2019-01-19T19:23:30.569Z,71.12
2019-01-19T19:26:23.064Z,71.30
2019-01-19T19:29:15.509Z,71.52
2019-01-19T19:32:06.087Z,71.32
2019-01-19T19:34:58.577Z,71.43
2019-01-19T19:37:49.140Z,71.61
2019-01-19T19:40:39.692Z,71.75
2019-01-19T19:43:32.153Z,72.02
2019-01-19T19:46:22.745Z,72.19
2019-01-19T19:49:15.221Z,71.96
2019-01-19T19:52:05.794Z,72.21
2019-01-19T19:54:16.632Z,72.19
2019-01-19T19:56:27.280Z,72.19
2019-01-19T19:58:38.138Z,72.35
2019-01-19T20:03:11.162Z,72.59
2019-01-19T20:05:22.095Z,72.70
2019-01-19T20:07:33.019Z,72.98
2019-01-19T20:09:43.943Z,73.11
2019-01-19T20:14:17.186Z,72.85
2019-01-19T20:16:27.995Z,72.75
2019-01-19T20:18:38.827Z,72.62
2019-01-19T20:20:49.837Z,72.71
2019-01-19T20:23:20.560Z,73.46
2019-01-19T20:25:31.374Z,73.46
2019-01-19T20:27:42.197Z,73.76
2019-01-19T20:29:53.015Z,73.99
2019-01-19T20:32:03.951Z,73.80
2019-01-19T20:34:14.771Z,73.86
2019-01-19T20:36:25.585Z,73.96
2019-01-19T20:38:36.536Z,73.85
2019-01-19T20:40:47.378Z,73.79
2019-01-19T20:42:58.240Z,73.86
2019-01-19T20:45:28.923Z,73.53
2019-01-19T20:47:39.838Z,73.43
2019-01-19T20:49:50.688Z,73.68
2019-01-19T20:52:01.625Z,73.57
2019-01-19T20:54:12.467Z,73.75
2019-01-19T20:56:23.282Z,73.78
2019-01-19T20:58:34.231Z,73.75
2019-01-19T21:00:45.064Z,73.79
2019-01-19T21:02:55.986Z,73.85
2019-01-19T21:05:06.921Z,73.85
2019-01-19T21:07:17.741Z,78.29
2019-01-19T21:09:28.698Z,76.53
2019-01-19T21:11:39.507Z,74.07
2019-01-19T21:13:50.323Z,73.33
2019-01-19T21:16:01.370Z,73.60
2019-01-19T21:18:12.192Z,73.15
2019-01-19T21:20:23.030Z,73.13
2019-01-19T21:22:33.853Z,73.02
2019-01-19T21:24:44.671Z,73.00
2019-01-19T21:26:55.479Z,73.11
2019-01-19T21:29:06.301Z,73.41
2019-01-19T21:31:17.155Z,73.45
2019-01-19T21:33:27.987Z,73.46
2019-01-19T21:35:38.965Z,73.54
2019-01-19T21:37:49.759Z,73.31
2019-01-19T21:40:00.616Z,73.36
2019-01-19T21:42:11.420Z,73.40
2019-01-19T21:44:22.254Z,73.37
2019-01-19T21:46:33.189Z,73.27
2019-01-19T21:48:44.031Z,73.12
2019-01-19T21:50:54.948Z,73.21
2019-01-19T21:53:05.777Z,73.43
2019-01-19T21:55:16.609Z,73.52
2019-01-19T21:57:27.464Z,73.61
2019-01-19T21:59:38.308Z,73.81
2019-01-19T22:01:49.143Z,73.74
2019-01-19T22:03:59.963Z,73.86
2019-01-19T22:06:10.841Z,73.72
2019-01-19T22:08:21.653Z,73.66
2019-01-19T22:10:32.551Z,73.64
2019-01-19T22:12:43.399Z,73.71
2019-01-19T22:14:54.203Z,73.86
2019-01-19T22:17:05.131Z,73.85
2019-01-19T22:19:15.935Z,73.60
2019-01-19T22:21:26.877Z,73.59
2019-01-19T22:23:37.719Z,73.65
2019-01-19T22:25:48.519Z,73.64
2019-01-19T22:27:59.353Z,73.60
2019-01-19T22:30:51.832Z,73.91
2019-01-19T22:36:03.400Z,73.43
2019-01-19T22:38:14.365Z,73.99
2019-01-19T22:40:25.336Z,74.04
2019-01-19T22:42:36.162Z,74.06
2019-01-19T22:44:47.004Z,74.03
2019-01-19T22:46:57.932Z,74.08
2019-01-19T22:49:08.848Z,74.04
2019-01-19T22:51:19.711Z,73.86
2019-01-19T22:53:30.529Z,73.97
2019-01-19T22:55:41.358Z,73.93
2019-01-19T22:57:52.159Z,74.07
2019-01-19T23:01:02.589Z,74.17
2019-01-19T23:03:33.532Z,74.43
2019-01-19T23:05:44.348Z,74.43
2019-01-19T23:07:55.149Z,74.10
2019-01-19T23:10:47.631Z,74.09
2019-01-19T23:12:58.476Z,74.03
2019-01-19T23:17:31.389Z,74.36
2019-01-19T23:19:42.202Z,74.81
2019-01-19T23:22:14.807Z,74.95
2019-01-19T23:24:25.677Z,75.31
2019-01-19T23:29:08.929Z,75.55
2019-01-19T23:31:19.771Z,76.06
2019-01-19T23:33:30.581Z,75.97
2019-01-19T23:35:41.404Z,75.90
2019-01-19T23:37:52.225Z,75.81
2019-01-19T23:40:44.690Z,75.86
2019-01-19T23:42:55.480Z,75.94
2019-01-19T23:45:28.104Z,75.86
2019-01-19T23:47:39.016Z,76.82
2019-01-19T23:49:49.871Z,77.17
2019-01-19T23:52:00.740Z,77.39
2019-01-19T23:54:11.542Z,77.26
2019-01-19T23:56:22.382Z,77.39
2019-01-19T23:58:33.232Z,77.42
